Forney's Hourly Summary for Sunday, March 19, 2017
Hour Temp
(f)
RH
(%)
Solar Rad.
(MJ/m2)
Rainfall
(in)
Wind
(mph)
3/19/2017 12:00 AM 66 78 0 0 0.5
3/19/2017 1:00 AM 65 83 0 0 2.74
3/19/2017 2:00 AM 64 86 0 0 1.91
3/19/2017 3:00 AM 63 88 0 0 1.22
3/19/2017 4:00 AM 63 88 0 0 1.21
3/19/2017 5:00 AM 62 88 0 0 1.03
3/19/2017 6:00 AM 62 94 0 0 2.07
3/19/2017 7:00 AM 62 97 0 0 2.66
3/19/2017 8:00 AM 62 99 0.02 0 3.15
3/19/2017 9:00 AM 64 94 0.34 0 3.79
3/19/2017 10:00 AM 67 84 0.85 0 4.95
3/19/2017 11:00 AM 67 82 0.77 0 5.67
3/19/2017 12:00 PM 69 75 1.07 0 5.24
3/19/2017 1:00 PM 72 66 1.75 0 5.43
3/19/2017 2:00 PM 75 60 2.56 0 5.6
3/19/2017 3:00 PM 77 56 2.46 0 6.47
3/19/2017 4:00 PM 79 52 2.44 0 6.8
3/19/2017 5:00 PM 80 51 1.79 0 7.87
3/19/2017 6:00 PM 80 51 1.19 0 7.28
3/19/2017 7:00 PM 78 52 0.47 0 6.55
3/19/2017 8:00 PM 76 57 0.03 0 3.95
3/19/2017 9:00 PM 73 65 0 0 3.53
3/19/2017 10:00 PM 71 67 0 0 3.41
3/19/2017 11:00 PM 70 69 0 0 4.73
Data Summary 69 74 15.74 0.00 4.07